createdAt,value
2023-05-16T00:00:56.547Z,97191.97
2023-05-16T00:03:25.366Z,97191.33
2023-05-16T00:05:51.660Z,97193.23
2023-05-16T00:08:17.931Z,97197.83
2023-05-16T00:10:44.186Z,97200.37
2023-05-16T00:13:10.489Z,97203.42
2023-05-16T00:15:36.714Z,97200.75
2023-05-16T00:18:03.258Z,97199.45
2023-05-16T00:20:29.858Z,97199.28
2023-05-16T00:22:56.468Z,97200.38
2023-05-16T00:25:22.912Z,97201.49
2023-05-16T00:27:49.188Z,97201.02
2023-05-16T00:30:15.421Z,97198.70
2023-05-16T00:32:41.744Z,97203.73
2023-05-16T00:35:08.034Z,97207.36
2023-05-16T00:37:34.286Z,97208.59
2023-05-16T00:40:00.588Z,97211.86
2023-05-16T00:42:26.870Z,97208.48
2023-05-16T00:44:53.120Z,97207.67
2023-05-16T00:47:19.419Z,97209.14
2023-05-16T00:49:45.693Z,97206.40
2023-05-16T00:52:11.976Z,97211.90
2023-05-16T00:54:39.608Z,97215.34
2023-05-16T00:57:06.206Z,97211.64
2023-05-16T00:59:33.006Z,97215.48
2023-05-16T01:02:00.498Z,97215.80
2023-05-16T01:04:27.500Z,97218.84
2023-05-16T01:06:54.430Z,97216.27
2023-05-16T01:09:20.727Z,97218.13
2023-05-16T01:11:49.799Z,97217.45
2023-05-16T01:14:37.006Z,97219.16
2023-05-16T01:17:09.111Z,97217.24
2023-05-16T01:19:35.389Z,97215.54
2023-05-16T01:22:14.414Z,97215.09
2023-05-16T01:24:52.776Z,97214.63
2023-05-16T01:27:19.085Z,97213.03
2023-05-16T01:29:45.316Z,97213.62
2023-05-16T01:32:11.547Z,97214.80
2023-05-16T01:34:38.268Z,97213.59
2023-05-16T01:37:04.604Z,97213.91
2023-05-16T01:39:30.908Z,97210.70
2023-05-16T01:42:05.154Z,97209.95
2023-05-16T01:44:34.514Z,97209.31
2023-05-16T01:47:09.025Z,97214.92
2023-05-16T01:49:38.546Z,97222.10
2023-05-16T01:52:12.757Z,97229.15
2023-05-16T01:54:42.056Z,97227.95
2023-05-16T01:57:08.804Z,97226.33
2023-05-16T01:59:35.544Z,97224.02
2023-05-16T02:02:01.953Z,97225.09
2023-05-16T02:04:28.231Z,97223.71
2023-05-16T02:06:54.593Z,97221.44
2023-05-16T02:09:20.917Z,97218.98
2023-05-16T02:11:47.246Z,97219.64
2023-05-16T02:14:13.712Z,97220.53
2023-05-16T02:16:40.043Z,97219.84
2023-05-16T02:19:06.397Z,97218.79
2023-05-16T02:21:32.861Z,97223.27
2023-05-16T02:23:59.100Z,97225.92
2023-05-16T02:26:26.505Z,97223.05
2023-05-16T02:28:53.039Z,97226.75
2023-05-16T02:31:45.891Z,97226.49
2023-05-16T02:34:12.216Z,97229.11
2023-05-16T02:36:38.494Z,97234.89
2023-05-16T02:39:04.764Z,97233.98
2023-05-16T02:41:31.059Z,97230.86
2023-05-16T02:43:57.404Z,97234.15
2023-05-16T02:46:29.706Z,97239.48
2023-05-16T02:48:56.568Z,97242.77
2023-05-16T02:51:24.491Z,97248.35
2023-05-16T02:53:51.266Z,97245.70
2023-05-16T02:56:18.022Z,97241.27
2023-05-16T02:58:46.698Z,97237.49
2023-05-16T03:01:13.414Z,97241.57
2023-05-16T03:03:39.967Z,97244.57
2023-05-16T03:06:06.540Z,97245.35
2023-05-16T03:08:33.280Z,97245.39
2023-05-16T03:10:59.965Z,97245.61
2023-05-16T03:13:26.509Z,97242.91
2023-05-16T03:15:52.896Z,97242.46
2023-05-16T03:18:19.247Z,97241.25
2023-05-16T03:20:45.701Z,97245.91
2023-05-16T03:23:12.200Z,97245.67
2023-05-16T03:25:38.485Z,97244.74
2023-05-16T03:28:05.638Z,97243.11
2023-05-16T03:30:32.177Z,97242.78
2023-05-16T03:32:58.580Z,97247.64
2023-05-16T03:35:25.221Z,97250.10
2023-05-16T03:37:52.029Z,97247.66
2023-05-16T03:40:18.334Z,97251.25
2023-05-16T03:42:44.922Z,97253.20
2023-05-16T03:45:11.511Z,97259.09
2023-05-16T03:47:37.897Z,97259.58
2023-05-16T03:50:05.191Z,97261.75
2023-05-16T03:52:31.508Z,97264.27
2023-05-16T03:54:57.781Z,97270.75
2023-05-16T03:57:24.026Z,97267.76
2023-05-16T03:59:50.316Z,97270.20
2023-05-16T04:02:18.788Z,97266.75
2023-05-16T04:04:45.556Z,97264.36
2023-05-16T04:07:11.806Z,97266.51
2023-05-16T04:09:38.047Z,97270.14
2023-05-16T04:12:04.510Z,97271.43
2023-05-16T04:14:30.769Z,97266.55
2023-05-16T04:16:57.130Z,97264.70
2023-05-16T04:19:23.500Z,97269.02
2023-05-16T04:21:49.751Z,97273.34
2023-05-16T04:24:16.423Z,97272.14
2023-05-16T04:26:42.666Z,97273.88
2023-05-16T04:29:09.234Z,97279.19
2023-05-16T04:31:35.579Z,97278.58
2023-05-16T04:34:02.000Z,97278.31
2023-05-16T04:36:28.401Z,97277.79
2023-05-16T04:38:54.929Z,97285.25
2023-05-16T04:41:21.173Z,97290.91
2023-05-16T04:43:47.714Z,97293.73
2023-05-16T04:46:13.971Z,97295.48
2023-05-16T04:48:40.574Z,97299.94
2023-05-16T04:51:06.937Z,97303.52
2023-05-16T04:53:33.177Z,97305.98
2023-05-16T04:55:59.777Z,97306.81
2023-05-16T04:58:26.030Z,97305.44
2023-05-16T05:00:52.365Z,97306.63
2023-05-16T05:03:18.775Z,97315.35
2023-05-16T05:05:45.123Z,97318.52
2023-05-16T05:08:11.441Z,97325.12
2023-05-16T05:10:37.791Z,97327.46
2023-05-16T05:13:04.169Z,97321.52
2023-05-16T05:15:30.578Z,97324.40
2023-05-16T05:17:57.078Z,97324.52
2023-05-16T05:20:23.451Z,97327.94
2023-05-16T05:22:49.743Z,97326.84
2023-05-16T05:25:16.223Z,97329.02
2023-05-16T05:27:42.523Z,97327.02
2023-05-16T05:30:08.984Z,97327.39
2023-05-16T05:32:35.338Z,97329.64
2023-05-16T05:35:01.819Z,97328.52
2023-05-16T05:37:28.466Z,97328.63
2023-05-16T05:39:54.921Z,97326.98
2023-05-16T05:42:21.334Z,97323.87
2023-05-16T05:44:47.630Z,97315.73
2023-05-16T05:47:14.524Z,97318.19
2023-05-16T05:49:40.992Z,97318.48
2023-05-16T05:52:07.303Z,97317.63
2023-05-16T05:54:33.664Z,97326.08
2023-05-16T05:57:00.034Z,97325.14
2023-05-16T05:59:26.308Z,97329.09
2023-05-16T06:01:52.800Z,97331.27
2023-05-16T06:04:19.662Z,97331.16
2023-05-16T06:06:46.061Z,97334.82
2023-05-16T06:09:12.578Z,97335.08
2023-05-16T06:11:39.172Z,97338.29
2023-05-16T06:14:05.419Z,97331.66
2023-05-16T06:16:31.730Z,97331.73
2023-05-16T06:18:58.147Z,97335.50
2023-05-16T06:21:24.477Z,97331.75
2023-05-16T06:23:50.775Z,97333.73
2023-05-16T06:26:17.240Z,97334.49
2023-05-16T06:28:43.565Z,97337.52
2023-05-16T06:31:09.898Z,97336.45
2023-05-16T06:33:36.228Z,97333.77
2023-05-16T06:36:02.610Z,97339.98
2023-05-16T06:38:28.860Z,97342.92
2023-05-16T06:40:55.088Z,97342.70
2023-05-16T06:43:21.406Z,97338.59
2023-05-16T06:45:47.686Z,97334.34
2023-05-16T06:48:14.544Z,97333.51
2023-05-16T06:50:41.040Z,97332.70
2023-05-16T06:53:07.352Z,97331.44
2023-05-16T06:55:33.755Z,97337.95
2023-05-16T06:58:00.326Z,97342.98
2023-05-16T07:00:26.681Z,97342.29
2023-05-16T07:02:53.119Z,97341.23
2023-05-16T07:05:19.457Z,97341.58
2023-05-16T07:07:45.820Z,97344.76
2023-05-16T07:10:13.294Z,97342.41
2023-05-16T07:12:41.094Z,97345.30
2023-05-16T07:15:07.782Z,97348.70
2023-05-16T07:17:34.689Z,97346.26
2023-05-16T07:20:02.969Z,97346.58
2023-05-16T07:22:31.449Z,97347.77
2023-05-16T07:24:58.705Z,97348.77
2023-05-16T07:27:25.474Z,97355.84
2023-05-16T07:29:51.770Z,97360.91
2023-05-16T07:32:18.124Z,97363.73
2023-05-16T07:34:44.526Z,97363.79
2023-05-16T07:37:10.876Z,97363.29
2023-05-16T07:39:37.271Z,97364.35
2023-05-16T07:42:03.612Z,97371.73
2023-05-16T07:44:29.909Z,97370.31
2023-05-16T07:46:56.248Z,97376.95
2023-05-16T07:49:22.610Z,97379.84
2023-05-16T07:51:48.944Z,97383.75
2023-05-16T07:54:15.321Z,97387.66
2023-05-16T07:56:41.757Z,97389.58
2023-05-16T07:59:08.306Z,97386.09
2023-05-16T08:01:34.725Z,97400.34
2023-05-16T08:04:01.268Z,97407.39
2023-05-16T08:06:27.789Z,97420.41
2023-05-16T08:08:54.218Z,97422.52
2023-05-16T08:11:20.523Z,97425.36
2023-05-16T08:13:46.896Z,97428.15
2023-05-16T08:16:13.286Z,97422.84
2023-05-16T08:18:39.761Z,97422.13
2023-05-16T08:21:06.122Z,97416.59
2023-05-16T08:23:32.511Z,97414.40
2023-05-16T08:25:58.807Z,97419.92
2023-05-16T08:28:25.228Z,97425.23
2023-05-16T08:30:51.740Z,97422.17
2023-05-16T08:33:18.107Z,97420.63
2023-05-16T08:35:44.486Z,97414.52
2023-05-16T08:38:10.760Z,97409.27
2023-05-16T08:40:37.072Z,97410.05
2023-05-16T08:43:03.620Z,97415.24
2023-05-16T08:45:33.359Z,97416.64
2023-05-16T08:51:53.132Z,97421.23
2023-05-16T08:54:28.059Z,97415.88
2023-05-16T08:57:08.431Z,97419.98
2023-05-16T08:59:40.627Z,97420.11
2023-05-16T09:02:16.542Z,97416.84
2023-05-16T09:05:24.359Z,97409.72
2023-05-16T09:08:13.559Z,97412.38
2023-05-16T09:10:47.242Z,97407.96
2023-05-16T09:13:13.578Z,97412.48
2023-05-16T09:15:40.012Z,97412.02
2023-05-16T09:18:11.353Z,97415.88
2023-05-16T09:20:44.608Z,97418.16
2023-05-16T09:23:10.943Z,97422.99
2023-05-16T09:25:39.385Z,97421.31
2023-05-16T09:28:09.893Z,97419.51
2023-05-16T09:30:36.451Z,97417.86
2023-05-16T09:33:05.890Z,97416.09
2023-05-16T09:38:01.417Z,97419.95
2023-05-16T09:40:27.759Z,97417.60
2023-05-16T09:43:04.219Z,97411.64
2023-05-16T09:45:31.044Z,97418.09
2023-05-16T09:48:01.925Z,97420.17
2023-05-16T09:50:28.312Z,97414.60
2023-05-16T09:52:56.194Z,97413.32
2023-05-16T09:55:23.015Z,97419.66
2023-05-16T09:57:49.501Z,97423.77
2023-05-16T10:00:16.174Z,97422.04
2023-05-16T10:02:42.698Z,97420.38
2023-05-16T10:05:09.454Z,97419.58
2023-05-16T10:07:37.069Z,97425.34
2023-05-16T10:10:05.397Z,97421.30
2023-05-16T10:12:32.474Z,97421.37
2023-05-16T10:15:02.971Z,97416.25
2023-05-16T10:17:30.707Z,97410.38
2023-05-16T10:19:57.831Z,97407.97
2023-05-16T10:22:24.632Z,97415.14
2023-05-16T10:24:58.164Z,97411.26
2023-05-16T10:27:24.840Z,97415.42
2023-05-16T10:29:54.673Z,97413.84
2023-05-16T10:32:23.369Z,97410.33
2023-05-16T10:34:50.130Z,97412.98
2023-05-16T10:37:16.456Z,97409.88
2023-05-16T10:39:43.120Z,97403.53
2023-05-16T10:42:09.658Z,97405.13
2023-05-16T10:44:38.296Z,97399.42
2023-05-16T10:47:04.683Z,97398.17
2023-05-16T10:49:31.144Z,97396.80
2023-05-16T10:52:08.151Z,97402.48
2023-05-16T10:54:41.946Z,97404.28
2023-05-16T11:05:29.503Z,97405.63
2023-05-16T11:07:31.556Z,97409.72
2023-05-16T11:08:17.510Z,97403.93
2023-05-16T11:10:59.798Z,97396.22
2023-05-16T11:16:42.976Z,97397.70
2023-05-16T11:22:09.072Z,97395.31
2023-05-16T11:24:41.574Z,97390.27
2023-05-16T11:27:13.835Z,97387.03
2023-05-16T11:29:40.188Z,97390.40
2023-05-16T11:32:06.597Z,97393.54
2023-05-16T11:34:36.032Z,97392.27
2023-05-16T11:44:10.711Z,97370.29
2023-05-16T11:46:45.059Z,97375.38
2023-05-16T11:49:17.038Z,97373.81
2023-05-16T11:51:43.399Z,97379.94
2023-05-16T11:54:10.083Z,97382.98
2023-05-16T11:56:36.472Z,97382.45
2023-05-16T11:59:02.821Z,97383.73
2023-05-16T12:01:36.184Z,97385.69
2023-05-16T12:04:08.929Z,97379.84
2023-05-16T12:06:35.545Z,97384.14
2023-05-16T12:09:01.868Z,97386.92
2023-05-16T12:11:28.149Z,97386.96
2023-05-16T12:13:54.604Z,97382.95
2023-05-16T12:16:21.248Z,97381.46
2023-05-16T12:18:47.703Z,97387.11
2023-05-16T12:21:14.130Z,97384.95
2023-05-16T12:23:41.515Z,97386.54
2023-05-16T12:26:07.812Z,97388.95
2023-05-16T12:28:34.164Z,97391.46
2023-05-16T12:31:00.776Z,97388.90
2023-05-16T12:33:27.300Z,97384.70
2023-05-16T12:35:53.860Z,97383.99
2023-05-16T12:38:20.313Z,97382.27
2023-05-16T12:40:47.065Z,97387.19
2023-05-16T12:43:13.366Z,97387.43
2023-05-16T12:45:39.761Z,97384.63
2023-05-16T12:48:11.551Z,97381.31
2023-05-16T12:50:38.529Z,97377.80
2023-05-16T12:53:04.838Z,97375.52
2023-05-16T12:55:31.134Z,97376.83
2023-05-16T12:57:57.473Z,97376.14
2023-05-16T13:00:23.847Z,97372.81
2023-05-16T13:02:50.397Z,97371.80
2023-05-16T13:05:16.758Z,97371.05
2023-05-16T13:07:43.202Z,97367.05
2023-05-16T13:10:10.535Z,97364.06
2023-05-16T13:12:37.385Z,97363.13
2023-05-16T13:15:04.323Z,97364.60
2023-05-16T13:17:30.726Z,97370.95
2023-05-16T13:19:57.144Z,97368.45
2023-05-16T13:22:23.496Z,97369.78
2023-05-16T13:24:49.780Z,97366.51
2023-05-16T13:27:16.550Z,97370.80
2023-05-16T13:29:43.284Z,97372.24
2023-05-16T13:32:09.737Z,97364.98
2023-05-16T13:34:36.108Z,97368.26
2023-05-16T13:37:03.759Z,97371.13
2023-05-16T13:39:31.621Z,97366.89
2023-05-16T13:42:06.248Z,97366.34
2023-05-16T13:44:36.217Z,97362.57
2023-05-16T13:47:02.976Z,97364.16
2023-05-16T13:49:29.369Z,97359.31
2023-05-16T13:51:55.706Z,97359.73
2023-05-16T13:54:22.096Z,97361.43
2023-05-16T13:56:50.113Z,97357.75
2023-05-16T13:59:21.174Z,97359.05
2023-05-16T14:01:54.035Z,97358.34
2023-05-16T14:04:22.211Z,97354.22
2023-05-16T14:06:48.615Z,97355.63
2023-05-16T14:09:14.975Z,97353.70
2023-05-16T14:11:41.580Z,97349.55
2023-05-16T14:14:07.900Z,97344.80
2023-05-16T14:16:34.220Z,97345.05
2023-05-16T14:19:00.657Z,97341.74
2023-05-16T14:21:27.046Z,97338.17
2023-05-16T14:23:53.378Z,97331.38
2023-05-16T14:26:19.867Z,97328.66
2023-05-16T14:28:46.267Z,97322.61
2023-05-16T14:31:12.650Z,97322.61
2023-05-16T14:33:39.049Z,97322.02
2023-05-16T14:36:08.403Z,97323.30
2023-05-16T14:38:35.278Z,97324.35
2023-05-16T14:41:02.135Z,97326.04
2023-05-16T14:43:28.642Z,97329.03
2023-05-16T14:45:55.180Z,97331.02
2023-05-16T14:48:21.670Z,97337.63
2023-05-16T14:50:48.104Z,97348.05
2023-05-16T14:53:14.492Z,97349.77
2023-05-16T14:55:40.929Z,97356.55
2023-05-16T14:58:07.304Z,97359.79
2023-05-16T15:00:33.673Z,97361.00
2023-05-16T15:03:00.082Z,97365.79
2023-05-16T15:05:26.548Z,97374.24
2023-05-16T15:07:53.122Z,97379.02
2023-05-16T15:10:19.523Z,97380.19
2023-05-16T15:12:46.053Z,97387.62
2023-05-16T15:15:14.854Z,97390.23
2023-05-16T15:17:42.846Z,97391.27
2023-05-16T15:20:10.106Z,97386.96
2023-05-16T15:22:36.811Z,97390.59
2023-05-16T15:25:03.578Z,97394.86
2023-05-16T15:27:29.916Z,97396.90
2023-05-16T15:29:59.567Z,97399.34
2023-05-16T15:32:26.096Z,97397.27
2023-05-16T15:34:52.555Z,97402.27
2023-05-16T15:37:20.716Z,97401.48
2023-05-16T15:39:47.298Z,97400.48
2023-05-16T15:42:13.667Z,97401.70
2023-05-16T15:44:40.097Z,97401.74
2023-05-16T15:47:06.622Z,97400.95
2023-05-16T15:49:36.031Z,97397.17
2023-05-16T15:52:02.367Z,97392.77
2023-05-16T15:54:29.003Z,97390.84
2023-05-16T15:56:56.283Z,97387.52
2023-05-16T15:59:23.076Z,97385.35
2023-05-16T16:01:49.531Z,97381.83
2023-05-16T16:04:16.784Z,97381.02
2023-05-16T16:06:43.342Z,97390.35
2023-05-16T16:09:12.012Z,97390.06
2023-05-16T16:11:38.377Z,97384.27
2023-05-16T16:14:04.768Z,97378.59
2023-05-16T16:16:31.204Z,97381.52
2023-05-16T16:18:57.644Z,97376.66
2023-05-16T16:21:24.104Z,97374.55
2023-05-16T16:23:50.426Z,97369.69
2023-05-16T16:26:16.791Z,97373.51
2023-05-16T16:28:43.394Z,97376.59
2023-05-16T16:31:09.710Z,97380.46
2023-05-16T16:33:36.026Z,97379.08
2023-05-16T16:36:02.890Z,97372.69
2023-05-16T16:38:29.275Z,97370.49
2023-05-16T16:40:55.748Z,97371.48
2023-05-16T16:43:22.131Z,97377.73
2023-05-16T16:45:48.493Z,97380.98
2023-05-16T16:48:14.860Z,97382.35
2023-05-16T16:50:44.157Z,97377.33
2023-05-16T16:53:10.597Z,97375.61
2023-05-16T16:55:38.210Z,97373.08
2023-05-16T16:58:05.710Z,97373.75
2023-05-16T17:00:32.043Z,97377.89
2023-05-16T17:02:58.585Z,97384.83
2023-05-16T17:05:25.289Z,97385.05
2023-05-16T17:07:51.772Z,97387.63
2023-05-16T17:10:18.210Z,97379.06
2023-05-16T17:12:44.696Z,97379.48
2023-05-16T17:15:10.996Z,97374.24
2023-05-16T17:17:37.382Z,97370.13
2023-05-16T17:20:05.078Z,97375.45
2023-05-16T17:22:31.483Z,97376.77
2023-05-16T17:24:57.824Z,97374.70
2023-05-16T17:27:24.245Z,97372.91
2023-05-16T17:29:50.693Z,97380.11
2023-05-16T17:32:20.985Z,97383.46
2023-05-16T17:35:15.157Z,97392.23
2023-05-16T17:38:11.966Z,97400.62
2023-05-16T17:40:43.947Z,97407.13
2023-05-16T17:43:23.617Z,97409.87
2023-05-16T17:46:09.687Z,97407.64
2023-05-16T17:48:38.525Z,97408.48
2023-05-16T17:51:08.648Z,97408.56
2023-05-16T17:53:39.168Z,97408.86
2023-05-16T17:56:30.139Z,97406.65
2023-05-16T17:58:59.933Z,97408.33
2023-05-16T18:01:31.959Z,97409.61
2023-05-16T18:04:02.602Z,97412.21
2023-05-16T18:06:33.762Z,97417.19
2023-05-16T18:09:19.115Z,97414.87
2023-05-16T18:11:48.188Z,97410.70
2023-05-16T18:14:17.234Z,97398.55
2023-05-16T18:16:43.749Z,97393.52
2023-05-16T18:19:10.478Z,97395.66
2023-05-16T18:21:37.890Z,97403.48
2023-05-16T18:24:06.571Z,97415.86
2023-05-16T18:26:41.029Z,97421.24
2023-05-16T18:29:10.588Z,97425.31
2023-05-16T18:31:37.947Z,97426.80
2023-05-16T18:34:04.498Z,97430.19
2023-05-16T18:36:31.422Z,97436.70
2023-05-16T18:38:59.028Z,97438.45
2023-05-16T18:41:27.300Z,97437.11
2023-05-16T18:47:22.296Z,97424.80
2023-05-16T18:50:00.534Z,97421.41
2023-05-16T18:52:30.978Z,97424.98
2023-05-16T18:55:01.348Z,97436.23
2023-05-16T18:57:34.301Z,97444.06
2023-05-16T19:00:01.449Z,97451.60
2023-05-16T19:06:06.324Z,97452.41
2023-05-16T19:08:46.522Z,97454.41
2023-05-16T19:11:16.429Z,97459.80
2023-05-16T19:13:47.550Z,97469.81
2023-05-16T19:16:16.001Z,97469.21
2023-05-16T19:18:43.824Z,97473.64
2023-05-16T19:21:48.792Z,97471.26
2023-05-16T19:24:25.153Z,97469.79
2023-05-16T19:26:56.575Z,97466.30
2023-05-16T19:29:27.042Z,97465.84
2023-05-16T19:31:57.278Z,97465.46
2023-05-16T19:34:27.266Z,97466.27
2023-05-16T19:37:01.627Z,97468.54
2023-05-16T19:39:30.872Z,97467.58
2023-05-16T19:42:06.245Z,97459.98
2023-05-16T19:44:33.776Z,97458.34
2023-05-16T19:47:00.142Z,97458.49
2023-05-16T19:49:28.848Z,97464.47
2023-05-16T19:52:06.705Z,97466.34
2023-05-16T19:54:33.246Z,97463.80
2023-05-16T19:57:01.658Z,97457.66
2023-05-16T19:59:29.987Z,97455.16
2023-05-16T20:02:00.411Z,97447.91
2023-05-16T20:04:29.514Z,97450.85
2023-05-16T20:06:56.314Z,97448.86
2023-05-16T20:09:22.845Z,97454.28
2023-05-16T20:11:49.593Z,97456.29
2023-05-16T20:14:16.201Z,97454.90
2023-05-16T20:16:42.572Z,97451.95
2023-05-16T20:19:09.159Z,97444.98
2023-05-16T20:21:35.782Z,97440.29
2023-05-16T20:24:02.255Z,97431.92
2023-05-16T20:26:31.055Z,97426.48
2023-05-16T20:28:59.508Z,97423.05
2023-05-16T20:31:26.638Z,97418.52
2023-05-16T20:33:54.227Z,97424.98
2023-05-16T20:36:21.400Z,97433.21
2023-05-16T20:38:48.011Z,97434.21
2023-05-16T20:41:14.476Z,97442.15
2023-05-16T20:43:41.075Z,97443.22
2023-05-16T20:46:07.621Z,97443.04
2023-05-16T20:52:06.272Z,97423.62
2023-05-16T20:54:39.566Z,97422.67
2023-05-16T20:57:09.148Z,97415.08
2023-05-16T20:59:36.572Z,97408.98
2023-05-16T21:02:07.839Z,97406.58
2023-05-16T21:04:36.265Z,97402.40
2023-05-16T21:07:02.725Z,97402.47
2023-05-16T21:09:29.183Z,97401.05
2023-05-16T21:11:56.164Z,97397.65
2023-05-16T21:14:25.130Z,97391.02
2023-05-16T21:16:54.138Z,97384.44
2023-05-16T21:19:20.645Z,97382.46
2023-05-16T21:21:49.080Z,97374.34
2023-05-16T21:24:15.469Z,97366.52
2023-05-16T21:26:41.919Z,97368.48
2023-05-16T21:29:08.293Z,97367.55
2023-05-16T21:31:37.743Z,97365.00
2023-05-16T21:34:06.121Z,97367.27
2023-05-16T21:36:35.340Z,97360.52
2023-05-16T21:39:01.727Z,97362.48
2023-05-16T21:41:28.352Z,97359.95
2023-05-16T21:43:54.780Z,97363.83
2023-05-16T21:46:21.125Z,97355.73
2023-05-16T21:48:47.733Z,97355.23
2023-05-16T21:51:14.474Z,97350.84
2023-05-16T21:53:48.270Z,97346.97
2023-05-16T21:56:14.696Z,97341.30
2023-05-16T21:58:41.429Z,97334.90
2023-05-16T22:01:07.784Z,97335.73
2023-05-16T22:03:34.321Z,97333.12
2023-05-16T22:06:00.749Z,97332.34
2023-05-16T22:08:27.138Z,97340.66
2023-05-16T22:10:53.586Z,97346.04
2023-05-16T22:13:20.470Z,97349.35
2023-05-16T22:15:59.401Z,97344.96
2023-05-16T22:18:31.192Z,97346.23
2023-05-16T22:20:57.736Z,97342.42
2023-05-16T22:23:24.156Z,97339.77
2023-05-16T22:25:53.570Z,97341.41
2023-05-16T22:28:21.220Z,97341.25
2023-05-16T22:30:47.742Z,97344.13
2023-05-16T22:33:14.120Z,97339.48
2023-05-16T22:35:40.477Z,97343.07
2023-05-16T22:38:06.858Z,97337.57
2023-05-16T22:40:33.410Z,97336.68
2023-05-16T22:42:59.779Z,97331.25
2023-05-16T22:45:26.352Z,97326.52
2023-05-16T22:47:52.999Z,97325.92
2023-05-16T22:50:19.357Z,97323.78
2023-05-16T22:52:45.815Z,97324.44
2023-05-16T22:55:12.223Z,97318.45
2023-05-16T22:57:38.548Z,97312.77
2023-05-16T23:00:05.306Z,97316.45
2023-05-16T23:02:31.817Z,97320.98
2023-05-16T23:04:58.377Z,97319.42
2023-05-16T23:07:25.032Z,97324.94
2023-05-16T23:09:51.398Z,97330.38
2023-05-16T23:12:17.753Z,97331.79
2023-05-16T23:14:44.106Z,97338.23
2023-05-16T23:17:10.682Z,97341.65
2023-05-16T23:19:37.134Z,97348.36
2023-05-16T23:22:03.587Z,97344.35
2023-05-16T23:24:30.004Z,97349.30
2023-05-16T23:26:56.384Z,97349.68
2023-05-16T23:29:22.767Z,97347.52
2023-05-16T23:31:49.162Z,97352.25
2023-05-16T23:34:15.488Z,97351.84
2023-05-16T23:36:41.785Z,97351.17
2023-05-16T23:39:08.262Z,97354.70
2023-05-16T23:41:34.665Z,97359.09
2023-05-16T23:44:01.037Z,97368.70
2023-05-16T23:46:27.529Z,97376.95
2023-05-16T23:48:53.925Z,97387.88
2023-05-16T23:51:20.305Z,97392.77
2023-05-16T23:53:46.899Z,97397.76
2023-05-16T23:56:15.783Z,97394.13
2023-05-16T23:58:42.324Z,97383.77
